Gainesville, Georgia
Current Conditions -  °F | °C
As of 11:53 AM on Saturday 22 Nov 2014 (Local Time) from KGVL Reporting Station
Clear Clear  
Wind Chill: 46°   Ceiling: Unl
Heat Index: 49°   Visibility: 10mi
Dew Point: 21°   Wind: 7mph
Humidity: 33%   Direction: 110°ESE
Pressure: 30.45"   Gusts: NA
Location:  34.3°N, 83.82°W
Report Text: KGVL 221653Z AUTO 11006KT 10SM CLR 09/M06 A3045 RMK AO2 PRESFR SLP310 T00941061
Loading
Personal Weather Stations






























Interactive Weather Map New forecast layout! Learn more

10-Day Weather Forecast

Advertisements
Track Severe Weather on mobile